sensor_id;sensor_type;location;lat;lon;timestamp;P1;durP1;ratioP1;P2;durP2;ratioP2
25653;SDS011;13511;48.622;9.230;2023-04-23T00:00:36;8.30;;;7.80;;
25653;SDS011;13511;48.622;9.230;2023-04-23T00:03:04;8.05;;;7.28;;
25653;SDS011;13511;48.622;9.230;2023-04-23T00:05:34;9.82;;;7.88;;
25653;SDS011;13511;48.622;9.230;2023-04-23T00:08:01;7.97;;;7.38;;
25653;SDS011;13511;48.622;9.230;2023-04-23T00:10:27;7.97;;;7.35;;
25653;SDS011;13511;48.622;9.230;2023-04-23T00:12:53;8.38;;;7.57;;
25653;SDS011;13511;48.622;9.230;2023-04-23T00:15:20;8.40;;;7.78;;
25653;SDS011;13511;48.622;9.230;2023-04-23T00:17:46;9.00;;;8.13;;
25653;SDS011;13511;48.622;9.230;2023-04-23T00:20:13;7.90;;;7.22;;
25653;SDS011;13511;48.622;9.230;2023-04-23T00:22:39;8.43;;;7.85;;
25653;SDS011;13511;48.622;9.230;2023-04-23T00:25:05;9.82;;;7.82;;
25653;SDS011;13511;48.622;9.230;2023-04-23T00:27:31;8.55;;;7.95;;
25653;SDS011;13511;48.622;9.230;2023-04-23T00:29:57;8.55;;;7.80;;
25653;SDS011;13511;48.622;9.230;2023-04-23T00:32:23;8.50;;;7.80;;
25653;SDS011;13511;48.622;9.230;2023-04-23T00:34:49;9.32;;;8.40;;
25653;SDS011;13511;48.622;9.230;2023-04-23T00:37:15;10.85;;;8.85;;
25653;SDS011;13511;48.622;9.230;2023-04-23T00:39:42;8.98;;;8.18;;
25653;SDS011;13511;48.622;9.230;2023-04-23T00:42:08;8.48;;;7.78;;
25653;SDS011;13511;48.622;9.230;2023-04-23T00:44:37;9.25;;;8.20;;
25653;SDS011;13511;48.622;9.230;2023-04-23T00:47:04;9.00;;;8.25;;
25653;SDS011;13511;48.622;9.230;2023-04-23T00:49:32;8.60;;;7.90;;
25653;SDS011;13511;48.622;9.230;2023-04-23T00:51:58;8.60;;;7.95;;
25653;SDS011;13511;48.622;9.230;2023-04-23T00:54:27;9.20;;;8.40;;
25653;SDS011;13511;48.622;9.230;2023-04-23T00:56:54;9.38;;;8.60;;
25653;SDS011;13511;48.622;9.230;2023-04-23T00:59:27;8.73;;;8.05;;
25653;SDS011;13511;48.622;9.230;2023-04-23T01:01:53;9.55;;;8.55;;
25653;SDS011;13511;48.622;9.230;2023-04-23T01:04:19;9.73;;;8.70;;
25653;SDS011;13511;48.622;9.230;2023-04-23T01:06:46;9.20;;;8.32;;
25653;SDS011;13511;48.622;9.230;2023-04-23T01:09:13;8.82;;;8.13;;
25653;SDS011;13511;48.622;9.230;2023-04-23T01:11:41;9.65;;;8.57;;
25653;SDS011;13511;48.622;9.230;2023-04-23T01:14:08;9.98;;;8.90;;
25653;SDS011;13511;48.622;9.230;2023-04-23T01:16:34;10.10;;;8.98;;
25653;SDS011;13511;48.622;9.230;2023-04-23T01:19:02;9.90;;;9.07;;
25653;SDS011;13511;48.622;9.230;2023-04-23T01:21:29;9.93;;;8.52;;
25653;SDS011;13511;48.622;9.230;2023-04-23T01:23:56;12.60;;;8.73;;
25653;SDS011;13511;48.622;9.230;2023-04-23T01:26:23;9.38;;;8.60;;
25653;SDS011;13511;48.622;9.230;2023-04-23T01:28:49;10.02;;;9.27;;
25653;SDS011;13511;48.622;9.230;2023-04-23T01:31:15;14.15;;;9.27;;
25653;SDS011;13511;48.622;9.230;2023-04-23T01:33:42;10.35;;;9.63;;
25653;SDS011;13511;48.622;9.230;2023-04-23T01:36:09;11.20;;;10.02;;
25653;SDS011;13511;48.622;9.230;2023-04-23T01:38:35;10.45;;;9.52;;
25653;SDS011;13511;48.622;9.230;2023-04-23T01:41:03;10.93;;;9.80;;
25653;SDS011;13511;48.622;9.230;2023-04-23T01:43:30;10.35;;;9.45;;
25653;SDS011;13511;48.622;9.230;2023-04-23T01:45:56;9.63;;;8.68;;
25653;SDS011;13511;48.622;9.230;2023-04-23T01:48:23;10.48;;;9.57;;
25653;SDS011;13511;48.622;9.230;2023-04-23T01:50:50;10.98;;;10.07;;
25653;SDS011;13511;48.622;9.230;2023-04-23T01:53:16;9.98;;;9.30;;
25653;SDS011;13511;48.622;9.230;2023-04-23T01:55:44;10.20;;;9.30;;
25653;SDS011;13511;48.622;9.230;2023-04-23T01:58:10;10.35;;;9.35;;
25653;SDS011;13511;48.622;9.230;2023-04-23T02:00:37;10.15;;;9.35;;
25653;SDS011;13511;48.622;9.230;2023-04-23T02:03:03;10.35;;;9.45;;
25653;SDS011;13511;48.622;9.230;2023-04-23T02:05:29;11.00;;;10.00;;
25653;SDS011;13511;48.622;9.230;2023-04-23T02:07:58;11.93;;;9.68;;
25653;SDS011;13511;48.622;9.230;2023-04-23T02:10:24;10.07;;;9.48;;
25653;SDS011;13511;48.622;9.230;2023-04-23T02:12:50;12.77;;;10.15;;
25653;SDS011;13511;48.622;9.230;2023-04-23T02:15:16;10.85;;;9.93;;
25653;SDS011;13511;48.622;9.230;2023-04-23T02:17:43;10.88;;;9.50;;
25653;SDS011;13511;48.622;9.230;2023-04-23T02:20:10;9.27;;;8.65;;
25653;SDS011;13511;48.622;9.230;2023-04-23T02:22:37;10.27;;;9.48;;
25653;SDS011;13511;48.622;9.230;2023-04-23T02:25:04;9.35;;;8.60;;
25653;SDS011;13511;48.622;9.230;2023-04-23T02:27:31;10.38;;;9.43;;
25653;SDS011;13511;48.622;9.230;2023-04-23T02:29:57;11.10;;;10.10;;
25653;SDS011;13511;48.622;9.230;2023-04-23T02:32:23;11.02;;;10.10;;
25653;SDS011;13511;48.622;9.230;2023-04-23T02:34:50;10.75;;;9.90;;
25653;SDS011;13511;48.622;9.230;2023-04-23T02:37:16;10.77;;;9.68;;
25653;SDS011;13511;48.622;9.230;2023-04-23T02:39:42;10.07;;;9.40;;
25653;SDS011;13511;48.622;9.230;2023-04-23T02:42:08;11.30;;;9.70;;
25653;SDS011;13511;48.622;9.230;2023-04-23T02:44:34;10.95;;;9.60;;
25653;SDS011;13511;48.622;9.230;2023-04-23T02:47:00;9.80;;;9.10;;
25653;SDS011;13511;48.622;9.230;2023-04-23T02:49:26;9.73;;;9.07;;
25653;SDS011;13511;48.622;9.230;2023-04-23T02:51:52;9.77;;;9.18;;
25653;SDS011;13511;48.622;9.230;2023-04-23T02:54:18;10.98;;;9.57;;
25653;SDS011;13511;48.622;9.230;2023-04-23T02:56:44;10.38;;;9.48;;
25653;SDS011;13511;48.622;9.230;2023-04-23T02:59:10;10.77;;;9.77;;
25653;SDS011;13511;48.622;9.230;2023-04-23T03:01:36;9.90;;;8.95;;
25653;SDS011;13511;48.622;9.230;2023-04-23T03:04:02;9.98;;;8.95;;
25653;SDS011;13511;48.622;9.230;2023-04-23T03:06:28;10.30;;;9.52;;
25653;SDS011;13511;48.622;9.230;2023-04-23T03:08:55;10.48;;;9.38;;
25653;SDS011;13511;48.622;9.230;2023-04-23T03:11:21;10.48;;;9.57;;
25653;SDS011;13511;48.622;9.230;2023-04-23T03:13:47;10.23;;;9.20;;
25653;SDS011;13511;48.622;9.230;2023-04-23T03:16:13;9.73;;;8.90;;
25653;SDS011;13511;48.622;9.230;2023-04-23T03:18:40;10.88;;;9.80;;
25653;SDS011;13511;48.622;9.230;2023-04-23T03:21:06;10.15;;;9.30;;
25653;SDS011;13511;48.622;9.230;2023-04-23T03:23:32;9.93;;;9.10;;
25653;SDS011;13511;48.622;9.230;2023-04-23T03:25:58;9.48;;;8.88;;
25653;SDS011;13511;48.622;9.230;2023-04-23T03:28:24;10.68;;;9.77;;
25653;SDS011;13511;48.622;9.230;2023-04-23T03:30:50;10.88;;;8.77;;
25653;SDS011;13511;48.622;9.230;2023-04-23T03:33:16;10.30;;;9.50;;
25653;SDS011;13511;48.622;9.230;2023-04-23T03:35:42;10.40;;;9.35;;
25653;SDS011;13511;48.622;9.230;2023-04-23T03:38:08;10.43;;;9.40;;
25653;SDS011;13511;48.622;9.230;2023-04-23T03:40:35;9.65;;;8.93;;
25653;SDS011;13511;48.622;9.230;2023-04-23T03:43:01;9.13;;;8.48;;
25653;SDS011;13511;48.622;9.230;2023-04-23T03:45:29;9.40;;;8.70;;
25653;SDS011;13511;48.622;9.230;2023-04-23T03:47:55;9.52;;;8.65;;
25653;SDS011;13511;48.622;9.230;2023-04-23T03:50:21;9.65;;;8.93;;
25653;SDS011;13511;48.622;9.230;2023-04-23T03:52:47;9.73;;;8.95;;
25653;SDS011;13511;48.622;9.230;2023-04-23T03:55:13;9.60;;;8.90;;
25653;SDS011;13511;48.622;9.230;2023-04-23T03:57:40;8.73;;;8.13;;
25653;SDS011;13511;48.622;9.230;2023-04-23T04:00:06;9.27;;;8.57;;
25653;SDS011;13511;48.622;9.230;2023-04-23T04:02:32;9.00;;;8.20;;
25653;SDS011;13511;48.622;9.230;2023-04-23T04:04:58;9.18;;;8.45;;
25653;SDS011;13511;48.622;9.230;2023-04-23T04:07:25;8.43;;;7.90;;
25653;SDS011;13511;48.622;9.230;2023-04-23T04:09:52;9.52;;;8.82;;
25653;SDS011;13511;48.622;9.230;2023-04-23T04:12:18;10.88;;;8.73;;
25653;SDS011;13511;48.622;9.230;2023-04-23T04:14:44;9.68;;;8.90;;
25653;SDS011;13511;48.622;9.230;2023-04-23T04:17:10;10.15;;;9.30;;
25653;SDS011;13511;48.622;9.230;2023-04-23T04:19:36;9.20;;;8.63;;
25653;SDS011;13511;48.622;9.230;2023-04-23T04:22:03;8.98;;;8.27;;
25653;SDS011;13511;48.622;9.230;2023-04-23T04:24:29;8.73;;;8.13;;
25653;SDS011;13511;48.622;9.230;2023-04-23T04:26:57;8.57;;;8.18;;
25653;SDS011;13511;48.622;9.230;2023-04-23T04:29:24;8.43;;;7.93;;
25653;SDS011;13511;48.622;9.230;2023-04-23T04:31:50;8.45;;;7.78;;
25653;SDS011;13511;48.622;9.230;2023-04-23T04:34:16;9.48;;;8.65;;
25653;SDS011;13511;48.622;9.230;2023-04-23T04:36:42;9.43;;;8.55;;
25653;SDS011;13511;48.622;9.230;2023-04-23T04:39:08;9.20;;;7.80;;
25653;SDS011;13511;48.622;9.230;2023-04-23T04:41:37;9.52;;;8.82;;
25653;SDS011;13511;48.622;9.230;2023-04-23T04:44:04;9.38;;;8.68;;
25653;SDS011;13511;48.622;9.230;2023-04-23T04:46:32;9.05;;;8.18;;
25653;SDS011;13511;48.622;9.230;2023-04-23T04:48:59;8.70;;;8.00;;
25653;SDS011;13511;48.622;9.230;2023-04-23T04:51:25;9.15;;;8.45;;
25653;SDS011;13511;48.622;9.230;2023-04-23T04:53:52;8.75;;;8.25;;
25653;SDS011;13511;48.622;9.230;2023-04-23T04:56:18;9.18;;;8.45;;
25653;SDS011;13511;48.622;9.230;2023-04-23T04:58:45;8.60;;;8.10;;
25653;SDS011;13511;48.622;9.230;2023-04-23T05:01:11;8.70;;;7.95;;
25653;SDS011;13511;48.622;9.230;2023-04-23T05:03:37;8.20;;;7.72;;
25653;SDS011;13511;48.622;9.230;2023-04-23T05:06:03;8.40;;;7.70;;
25653;SDS011;13511;48.622;9.230;2023-04-23T05:08:29;8.88;;;8.30;;
25653;SDS011;13511;48.622;9.230;2023-04-23T05:10:55;9.00;;;8.10;;
25653;SDS011;13511;48.622;9.230;2023-04-23T05:13:21;8.57;;;7.97;;
25653;SDS011;13511;48.622;9.230;2023-04-23T05:15:47;8.65;;;8.15;;
25653;SDS011;13511;48.622;9.230;2023-04-23T05:18:13;9.00;;;8.40;;
25653;SDS011;13511;48.622;9.230;2023-04-23T05:20:39;9.48;;;8.88;;
25653;SDS011;13511;48.622;9.230;2023-04-23T05:23:06;8.93;;;8.13;;
25653;SDS011;13511;48.622;9.230;2023-04-23T05:25:32;9.40;;;8.63;;
25653;SDS011;13511;48.622;9.230;2023-04-23T05:27:59;8.70;;;8.10;;
25653;SDS011;13511;48.622;9.230;2023-04-23T05:30:25;8.48;;;7.88;;
25653;SDS011;13511;48.622;9.230;2023-04-23T05:32:51;9.20;;;8.13;;
25653;SDS011;13511;48.622;9.230;2023-04-23T05:35:17;7.65;;;7.20;;
25653;SDS011;13511;48.622;9.230;2023-04-23T05:37:43;8.13;;;7.50;;
25653;SDS011;13511;48.622;9.230;2023-04-23T05:40:09;7.75;;;7.15;;
25653;SDS011;13511;48.622;9.230;2023-04-23T05:42:35;7.60;;;7.00;;
25653;SDS011;13511;48.622;9.230;2023-04-23T05:45:02;7.40;;;6.90;;
25653;SDS011;13511;48.622;9.230;2023-04-23T05:47:29;7.10;;;6.68;;
25653;SDS011;13511;48.622;9.230;2023-04-23T05:49:55;6.95;;;6.60;;
25653;SDS011;13511;48.622;9.230;2023-04-23T05:52:21;8.18;;;7.45;;
25653;SDS011;13511;48.622;9.230;2023-04-23T05:54:47;7.72;;;7.18;;
25653;SDS011;13511;48.622;9.230;2023-04-23T05:57:13;7.20;;;6.80;;
25653;SDS011;13511;48.622;9.230;2023-04-23T05:59:39;11.18;;;7.43;;
25653;SDS011;13511;48.622;9.230;2023-04-23T06:02:06;6.85;;;6.45;;
25653;SDS011;13511;48.622;9.230;2023-04-23T06:04:32;7.10;;;6.60;;
25653;SDS011;13511;48.622;9.230;2023-04-23T06:06:58;6.60;;;6.20;;
25653;SDS011;13511;48.622;9.230;2023-04-23T06:09:24;6.72;;;6.22;;
25653;SDS011;13511;48.622;9.230;2023-04-23T06:11:51;8.18;;;6.20;;
25653;SDS011;13511;48.622;9.230;2023-04-23T06:14:17;6.15;;;5.85;;
25653;SDS011;13511;48.622;9.230;2023-04-23T06:16:43;7.10;;;6.63;;
25653;SDS011;13511;48.622;9.230;2023-04-23T06:19:09;6.85;;;6.35;;
25653;SDS011;13511;48.622;9.230;2023-04-23T06:21:35;6.50;;;6.03;;
25653;SDS011;13511;48.622;9.230;2023-04-23T06:24:02;6.50;;;6.05;;
25653;SDS011;13511;48.622;9.230;2023-04-23T06:26:28;6.53;;;6.13;;
25653;SDS011;13511;48.622;9.230;2023-04-23T06:28:54;6.43;;;5.90;;
25653;SDS011;13511;48.622;9.230;2023-04-23T06:31:20;6.00;;;5.50;;
25653;SDS011;13511;48.622;9.230;2023-04-23T06:33:46;5.97;;;5.57;;
25653;SDS011;13511;48.622;9.230;2023-04-23T06:36:12;6.00;;;5.60;;
25653;SDS011;13511;48.622;9.230;2023-04-23T06:38:38;5.18;;;4.97;;
25653;SDS011;13511;48.622;9.230;2023-04-23T06:41:05;5.28;;;4.97;;
25653;SDS011;13511;48.622;9.230;2023-04-23T06:43:31;4.93;;;4.70;;
25653;SDS011;13511;48.622;9.230;2023-04-23T06:45:58;5.20;;;4.78;;
25653;SDS011;13511;48.622;9.230;2023-04-23T06:48:24;5.40;;;5.10;;
25653;SDS011;13511;48.622;9.230;2023-04-23T06:50:50;5.88;;;5.38;;
25653;SDS011;13511;48.622;9.230;2023-04-23T06:53:16;5.88;;;5.47;;
25653;SDS011;13511;48.622;9.230;2023-04-23T06:55:42;4.80;;;4.60;;
25653;SDS011;13511;48.622;9.230;2023-04-23T06:58:08;5.63;;;5.25;;
25653;SDS011;13511;48.622;9.230;2023-04-23T07:00:35;5.30;;;5.00;;
25653;SDS011;13511;48.622;9.230;2023-04-23T07:03:01;4.80;;;4.60;;
25653;SDS011;13511;48.622;9.230;2023-04-23T07:05:27;5.00;;;4.80;;
25653;SDS011;13511;48.622;9.230;2023-04-23T07:07:53;5.22;;;5.03;;
25653;SDS011;13511;48.622;9.230;2023-04-23T07:10:20;4.85;;;4.65;;
25653;SDS011;13511;48.622;9.230;2023-04-23T07:12:46;5.15;;;4.90;;
25653;SDS011;13511;48.622;9.230;2023-04-23T07:15:12;5.10;;;5.00;;
25653;SDS011;13511;48.622;9.230;2023-04-23T07:17:38;5.72;;;5.32;;
25653;SDS011;13511;48.622;9.230;2023-04-23T07:20:05;5.68;;;5.47;;
25653;SDS011;13511;48.622;9.230;2023-04-23T07:22:32;5.10;;;4.90;;
25653;SDS011;13511;48.622;9.230;2023-04-23T07:24:59;4.82;;;4.63;;
25653;SDS011;13511;48.622;9.230;2023-04-23T07:27:25;4.63;;;4.47;;
25653;SDS011;13511;48.622;9.230;2023-04-23T07:29:51;5.10;;;4.70;;
25653;SDS011;13511;48.622;9.230;2023-04-23T07:32:17;5.00;;;4.60;;
25653;SDS011;13511;48.622;9.230;2023-04-23T07:34:45;5.20;;;4.90;;
25653;SDS011;13511;48.622;9.230;2023-04-23T07:37:11;4.93;;;4.72;;
25653;SDS011;13511;48.622;9.230;2023-04-23T07:39:37;5.28;;;4.93;;
25653;SDS011;13511;48.622;9.230;2023-04-23T07:42:03;5.20;;;5.00;;
25653;SDS011;13511;48.622;9.230;2023-04-23T07:44:29;5.00;;;4.78;;
25653;SDS011;13511;48.622;9.230;2023-04-23T07:46:55;5.10;;;4.90;;
25653;SDS011;13511;48.622;9.230;2023-04-23T07:49:21;5.20;;;5.00;;
25653;SDS011;13511;48.622;9.230;2023-04-23T07:51:47;5.10;;;4.90;;
25653;SDS011;13511;48.622;9.230;2023-04-23T07:54:13;4.90;;;4.70;;
25653;SDS011;13511;48.622;9.230;2023-04-23T07:56:39;4.70;;;4.50;;
25653;SDS011;13511;48.622;9.230;2023-04-23T07:59:05;4.80;;;4.60;;
25653;SDS011;13511;48.622;9.230;2023-04-23T08:01:33;4.95;;;4.55;;
25653;SDS011;13511;48.622;9.230;2023-04-23T08:03:59;4.90;;;4.70;;
25653;SDS011;13511;48.622;9.230;2023-04-23T08:06:26;4.90;;;4.60;;
25653;SDS011;13511;48.622;9.230;2023-04-23T08:08:55;4.72;;;4.43;;
25653;SDS011;13511;48.622;9.230;2023-04-23T08:11:21;5.13;;;4.93;;
25653;SDS011;13511;48.622;9.230;2023-04-23T08:13:47;4.90;;;4.60;;
25653;SDS011;13511;48.622;9.230;2023-04-23T08:16:13;5.15;;;4.88;;
25653;SDS011;13511;48.622;9.230;2023-04-23T08:18:39;5.00;;;4.80;;
25653;SDS011;13511;48.622;9.230;2023-04-23T08:21:06;5.00;;;4.80;;
25653;SDS011;13511;48.622;9.230;2023-04-23T08:23:32;4.80;;;4.50;;
25653;SDS011;13511;48.622;9.230;2023-04-23T08:25:58;4.80;;;4.70;;
25653;SDS011;13511;48.622;9.230;2023-04-23T08:28:24;5.20;;;5.00;;
25653;SDS011;13511;48.622;9.230;2023-04-23T08:30:51;4.90;;;4.70;;
25653;SDS011;13511;48.622;9.230;2023-04-23T08:33:18;4.65;;;4.55;;
25653;SDS011;13511;48.622;9.230;2023-04-23T08:35:45;4.95;;;4.75;;
25653;SDS011;13511;48.622;9.230;2023-04-23T08:38:11;4.90;;;4.60;;
25653;SDS011;13511;48.622;9.230;2023-04-23T08:40:37;4.90;;;4.70;;
25653;SDS011;13511;48.622;9.230;2023-04-23T08:43:09;4.90;;;4.47;;
25653;SDS011;13511;48.622;9.230;2023-04-23T08:45:38;4.40;;;4.20;;
25653;SDS011;13511;48.622;9.230;2023-04-23T08:48:05;4.40;;;4.30;;
25653;SDS011;13511;48.622;9.230;2023-04-23T08:50:31;5.10;;;4.90;;
25653;SDS011;13511;48.622;9.230;2023-04-23T08:52:58;5.32;;;4.82;;
25653;SDS011;13511;48.622;9.230;2023-04-23T08:55:24;4.55;;;4.25;;
25653;SDS011;13511;48.622;9.230;2023-04-23T08:57:50;4.10;;;4.00;;
25653;SDS011;13511;48.622;9.230;2023-04-23T09:00:17;4.20;;;4.10;;
25653;SDS011;13511;48.622;9.230;2023-04-23T09:02:44;4.63;;;4.53;;
25653;SDS011;13511;48.622;9.230;2023-04-23T09:05:10;4.00;;;3.90;;
25653;SDS011;13511;48.622;9.230;2023-04-23T09:07:37;4.60;;;4.35;;
25653;SDS011;13511;48.622;9.230;2023-04-23T09:10:04;4.30;;;4.10;;
25653;SDS011;13511;48.622;9.230;2023-04-23T09:12:30;4.50;;;4.38;;
25653;SDS011;13511;48.622;9.230;2023-04-23T09:14:57;4.68;;;4.50;;
25653;SDS011;13511;48.622;9.230;2023-04-23T09:17:23;4.85;;;4.65;;
25653;SDS011;13511;48.622;9.230;2023-04-23T09:19:52;3.88;;;3.78;;
25653;SDS011;13511;48.622;9.230;2023-04-23T09:25:04;4.10;;;4.00;;
25653;SDS011;13511;48.622;9.230;2023-04-23T09:27:30;3.88;;;3.78;;
25653;SDS011;13511;48.622;9.230;2023-04-23T09:29:56;4.65;;;4.32;;
25653;SDS011;13511;48.622;9.230;2023-04-23T09:32:30;3.90;;;3.80;;
25653;SDS011;13511;48.622;9.230;2023-04-23T09:35:06;4.70;;;4.50;;
25653;SDS011;13511;48.622;9.230;2023-04-23T09:37:32;4.03;;;3.88;;
25653;SDS011;13511;48.622;9.230;2023-04-23T09:39:59;4.15;;;4.03;;
25653;SDS011;13511;48.622;9.230;2023-04-23T09:42:26;4.22;;;4.03;;
25653;SDS011;13511;48.622;9.230;2023-04-23T09:45:03;3.90;;;3.80;;
25653;SDS011;13511;48.622;9.230;2023-04-23T09:47:33;4.05;;;3.95;;
25653;SDS011;13511;48.622;9.230;2023-04-23T09:49:59;4.22;;;4.03;;
25653;SDS011;13511;48.622;9.230;2023-04-23T09:52:25;3.67;;;3.45;;
25653;SDS011;13511;48.622;9.230;2023-04-23T09:54:55;3.95;;;3.85;;
25653;SDS011;13511;48.622;9.230;2023-04-23T09:57:23;3.83;;;3.70;;
25653;SDS011;13511;48.622;9.230;2023-04-23T09:59:49;4.07;;;3.88;;
25653;SDS011;13511;48.622;9.230;2023-04-23T10:02:15;3.90;;;3.70;;
25653;SDS011;13511;48.622;9.230;2023-04-23T10:04:42;4.10;;;4.00;;
25653;SDS011;13511;48.622;9.230;2023-04-23T10:07:08;3.88;;;3.78;;
25653;SDS011;13511;48.622;9.230;2023-04-23T10:09:38;4.40;;;4.10;;
25653;SDS011;13511;48.622;9.230;2023-04-23T10:12:05;4.07;;;3.97;;
25653;SDS011;13511;48.622;9.230;2023-04-23T10:14:32;4.18;;;4.07;;
25653;SDS011;13511;48.622;9.230;2023-04-23T10:16:59;4.00;;;3.80;;
25653;SDS011;13511;48.622;9.230;2023-04-23T10:19:25;4.00;;;3.90;;
25653;SDS011;13511;48.622;9.230;2023-04-23T10:21:59;4.25;;;4.10;;
25653;SDS011;13511;48.622;9.230;2023-04-23T10:24:33;4.38;;;4.28;;
25653;SDS011;13511;48.622;9.230;2023-04-23T10:27:00;4.85;;;4.55;;
25653;SDS011;13511;48.622;9.230;2023-04-23T10:29:34;4.40;;;4.00;;
25653;SDS011;13511;48.622;9.230;2023-04-23T10:32:01;4.10;;;3.90;;
25653;SDS011;13511;48.622;9.230;2023-04-23T10:34:28;4.25;;;4.05;;
25653;SDS011;13511;48.622;9.230;2023-04-23T10:36:55;4.30;;;4.10;;
25653;SDS011;13511;48.622;9.230;2023-04-23T10:39:21;3.90;;;3.80;;
25653;SDS011;13511;48.622;9.230;2023-04-23T10:41:48;4.35;;;4.13;;
25653;SDS011;13511;48.622;9.230;2023-04-23T10:44:14;3.70;;;3.60;;
25653;SDS011;13511;48.622;9.230;2023-04-23T10:46:49;4.07;;;3.88;;
25653;SDS011;13511;48.622;9.230;2023-04-23T10:49:15;3.70;;;3.60;;
25653;SDS011;13511;48.622;9.230;2023-04-23T10:51:41;3.80;;;3.60;;
25653;SDS011;13511;48.622;9.230;2023-04-23T10:54:13;3.40;;;3.30;;
25653;SDS011;13511;48.622;9.230;2023-04-23T10:56:39;3.30;;;3.20;;
25653;SDS011;13511;48.622;9.230;2023-04-23T10:59:18;3.50;;;3.40;;
25653;SDS011;13511;48.622;9.230;2023-04-23T11:01:51;4.28;;;4.03;;
25653;SDS011;13511;48.622;9.230;2023-04-23T11:09:46;3.83;;;3.63;;
25653;SDS011;13511;48.622;9.230;2023-04-23T11:12:06;6.43;;;3.80;;
25653;SDS011;13511;48.622;9.230;2023-04-23T11:17:04;3.88;;;3.78;;
25653;SDS011;13511;48.622;9.230;2023-04-23T11:19:33;3.97;;;3.88;;
25653;SDS011;13511;48.622;9.230;2023-04-23T11:22:06;4.00;;;3.80;;
25653;SDS011;13511;48.622;9.230;2023-04-23T11:24:37;4.18;;;4.07;;
25653;SDS011;13511;48.622;9.230;2023-04-23T11:27:16;4.15;;;3.90;;
25653;SDS011;13511;48.622;9.230;2023-04-23T11:29:44;3.92;;;3.80;;
25653;SDS011;13511;48.622;9.230;2023-04-23T11:32:15;3.88;;;3.60;;
25653;SDS011;13511;48.622;9.230;2023-04-23T11:34:42;3.70;;;3.50;;
25653;SDS011;13511;48.622;9.230;2023-04-23T11:37:09;3.50;;;3.40;;
25653;SDS011;13511;48.622;9.230;2023-04-23T11:39:36;3.42;;;3.33;;
25653;SDS011;13511;48.622;9.230;2023-04-23T11:42:02;3.60;;;3.50;;
25653;SDS011;13511;48.622;9.230;2023-04-23T11:44:28;3.30;;;3.20;;
25653;SDS011;13511;48.622;9.230;2023-04-23T11:46:57;3.50;;;3.40;;
25653;SDS011;13511;48.622;9.230;2023-04-23T11:49:24;3.75;;;3.65;;
25653;SDS011;13511;48.622;9.230;2023-04-23T11:51:50;4.13;;;4.00;;
25653;SDS011;13511;48.622;9.230;2023-04-23T11:54:16;3.78;;;3.58;;
25653;SDS011;13511;48.622;9.230;2023-04-23T11:56:44;3.70;;;3.60;;
25653;SDS011;13511;48.622;9.230;2023-04-23T11:59:10;3.65;;;3.55;;
25653;SDS011;13511;48.622;9.230;2023-04-23T12:04:12;3.80;;;3.60;;
25653;SDS011;13511;48.622;9.230;2023-04-23T12:06:39;3.78;;;3.67;;
25653;SDS011;13511;48.622;9.230;2023-04-23T12:09:06;4.00;;;3.90;;
25653;SDS011;13511;48.622;9.230;2023-04-23T12:11:34;3.72;;;3.63;;
25653;SDS011;13511;48.622;9.230;2023-04-23T12:14:00;3.60;;;3.50;;
25653;SDS011;13511;48.622;9.230;2023-04-23T12:16:42;4.10;;;3.95;;
25653;SDS011;13511;48.622;9.230;2023-04-23T12:19:15;3.90;;;3.70;;
25653;SDS011;13511;48.622;9.230;2023-04-23T12:21:46;3.95;;;3.75;;
25653;SDS011;13511;48.622;9.230;2023-04-23T12:24:13;4.00;;;3.90;;
25653;SDS011;13511;48.622;9.230;2023-04-23T12:26:39;3.50;;;3.40;;
25653;SDS011;13511;48.622;9.230;2023-04-23T12:29:07;3.60;;;3.50;;
25653;SDS011;13511;48.622;9.230;2023-04-23T12:31:33;3.92;;;3.83;;
25653;SDS011;13511;48.622;9.230;2023-04-23T12:34:03;3.78;;;3.58;;
25653;SDS011;13511;48.622;9.230;2023-04-23T12:36:30;4.07;;;3.88;;
25653;SDS011;13511;48.622;9.230;2023-04-23T12:41:41;3.60;;;3.50;;
25653;SDS011;13511;48.622;9.230;2023-04-23T12:44:07;3.92;;;3.72;;
25653;SDS011;13511;48.622;9.230;2023-04-23T12:46:32;4.03;;;3.70;;
25653;SDS011;13511;48.622;9.230;2023-04-23T12:48:58;3.88;;;3.70;;
25653;SDS011;13511;48.622;9.230;2023-04-23T12:51:24;3.75;;;3.55;;
25653;SDS011;13511;48.622;9.230;2023-04-23T12:53:50;3.67;;;3.50;;
25653;SDS011;13511;48.622;9.230;2023-04-23T12:56:16;3.40;;;3.30;;
25653;SDS011;13511;48.622;9.230;2023-04-23T12:58:42;3.40;;;3.30;;
25653;SDS011;13511;48.622;9.230;2023-04-23T13:01:08;3.40;;;3.30;;
25653;SDS011;13511;48.622;9.230;2023-04-23T13:03:36;3.50;;;3.30;;
25653;SDS011;13511;48.622;9.230;2023-04-23T13:06:02;3.75;;;3.63;;
25653;SDS011;13511;48.622;9.230;2023-04-23T13:08:28;4.25;;;4.00;;
25653;SDS011;13511;48.622;9.230;2023-04-23T13:10:55;4.05;;;3.85;;
25653;SDS011;13511;48.622;9.230;2023-04-23T13:13:21;4.03;;;3.90;;
25653;SDS011;13511;48.622;9.230;2023-04-23T13:15:47;4.38;;;4.07;;
25653;SDS011;13511;48.622;9.230;2023-04-23T13:18:13;3.58;;;3.40;;
25653;SDS011;13511;48.622;9.230;2023-04-23T13:20:39;3.55;;;3.35;;
25653;SDS011;13511;48.622;9.230;2023-04-23T13:23:05;3.88;;;3.65;;
25653;SDS011;13511;48.622;9.230;2023-04-23T13:25:33;3.95;;;3.63;;
25653;SDS011;13511;48.622;9.230;2023-04-23T13:27:59;4.18;;;4.03;;
25653;SDS011;13511;48.622;9.230;2023-04-23T13:30:25;3.63;;;3.53;;
25653;SDS011;13511;48.622;9.230;2023-04-23T13:32:51;3.75;;;3.65;;
25653;SDS011;13511;48.622;9.230;2023-04-23T13:35:17;3.80;;;3.70;;
25653;SDS011;13511;48.622;9.230;2023-04-23T13:37:43;3.70;;;3.50;;
25653;SDS011;13511;48.622;9.230;2023-04-23T13:40:09;4.45;;;3.53;;
25653;SDS011;13511;48.622;9.230;2023-04-23T13:42:35;3.78;;;3.63;;
25653;SDS011;13511;48.622;9.230;2023-04-23T13:45:01;3.70;;;3.50;;
25653;SDS011;13511;48.622;9.230;2023-04-23T13:47:30;4.18;;;3.97;;
25653;SDS011;13511;48.622;9.230;2023-04-23T13:49:58;3.90;;;3.70;;
25653;SDS011;13511;48.622;9.230;2023-04-23T13:52:27;4.63;;;3.70;;
25653;SDS011;13511;48.622;9.230;2023-04-23T13:54:53;3.72;;;3.53;;
25653;SDS011;13511;48.622;9.230;2023-04-23T13:57:21;4.10;;;3.80;;
25653;SDS011;13511;48.622;9.230;2023-04-23T13:59:47;9.68;;;3.83;;
25653;SDS011;13511;48.622;9.230;2023-04-23T14:02:14;3.20;;;3.10;;
25653;SDS011;13511;48.622;9.230;2023-04-23T14:04:40;3.70;;;3.50;;
25653;SDS011;13511;48.622;9.230;2023-04-23T14:07:06;3.22;;;3.13;;
25653;SDS011;13511;48.622;9.230;2023-04-23T14:09:32;3.60;;;3.38;;
25653;SDS011;13511;48.622;9.230;2023-04-23T14:11:58;5.38;;;3.20;;
25653;SDS011;13511;48.622;9.230;2023-04-23T14:14:25;3.30;;;3.20;;
25653;SDS011;13511;48.622;9.230;2023-04-23T14:16:51;3.30;;;3.20;;
25653;SDS011;13511;48.622;9.230;2023-04-23T14:19:17;3.20;;;3.10;;
25653;SDS011;13511;48.622;9.230;2023-04-23T14:21:43;3.75;;;3.50;;
25653;SDS011;13511;48.622;9.230;2023-04-23T14:24:22;3.70;;;3.40;;
25653;SDS011;13511;48.622;9.230;2023-04-23T14:26:52;3.80;;;3.40;;
25653;SDS011;13511;48.622;9.230;2023-04-23T14:31:44;3.15;;;3.05;;
25653;SDS011;13511;48.622;9.230;2023-04-23T14:34:10;3.28;;;3.10;;
25653;SDS011;13511;48.622;9.230;2023-04-23T14:36:36;3.17;;;2.97;;
25653;SDS011;13511;48.622;9.230;2023-04-23T14:39:02;3.60;;;3.30;;
25653;SDS011;13511;48.622;9.230;2023-04-23T14:41:31;4.05;;;3.67;;
25653;SDS011;13511;48.622;9.230;2023-04-23T14:43:58;4.38;;;3.92;;
25653;SDS011;13511;48.622;9.230;2023-04-23T14:46:24;3.42;;;3.15;;
25653;SDS011;13511;48.622;9.230;2023-04-23T14:48:50;3.70;;;3.40;;
25653;SDS011;13511;48.622;9.230;2023-04-23T14:51:16;3.45;;;3.28;;
25653;SDS011;13511;48.622;9.230;2023-04-23T14:53:42;4.68;;;3.58;;
25653;SDS011;13511;48.622;9.230;2023-04-23T14:56:08;3.72;;;3.50;;
25653;SDS011;13511;48.622;9.230;2023-04-23T14:58:34;3.60;;;3.30;;
25653;SDS011;13511;48.622;9.230;2023-04-23T15:01:00;3.50;;;3.30;;